createdAt,value
2019-01-11T00:00:09.221Z,3.50
2019-01-11T00:02:41.094Z,2.67
2019-01-11T00:05:11.288Z,2.80
2019-01-11T00:07:41.755Z,2.70
2019-01-11T00:10:11.985Z,2.40
2019-01-11T00:12:42.232Z,2.70
2019-01-11T00:15:12.559Z,2.30
2019-01-11T00:17:42.774Z,2.43
2019-01-11T00:20:13.104Z,2.30
2019-01-11T00:22:43.341Z,2.47
2019-01-11T00:25:13.642Z,2.60
2019-01-11T00:27:44.159Z,2.50
2019-01-11T00:30:14.466Z,2.80
2019-01-11T00:32:44.662Z,2.63
2019-01-11T00:35:14.919Z,2.50
2019-01-11T00:37:45.005Z,2.93
2019-01-11T00:40:15.225Z,2.80
2019-01-11T00:42:46.383Z,2.90
2019-01-11T00:45:16.895Z,2.93
2019-01-11T00:47:47.153Z,3.13
2019-01-11T00:50:17.554Z,3.33
2019-01-11T00:52:47.754Z,3.20
2019-01-11T00:55:17.899Z,3.30
2019-01-11T00:57:48.025Z,3.40
2019-01-11T01:00:20.164Z,3.60
2019-01-11T01:02:50.674Z,3.40
2019-01-11T01:05:21.001Z,3.30
2019-01-11T01:07:52.284Z,3.60
2019-01-11T01:10:24.008Z,4.30
2019-01-11T01:12:54.221Z,4.20
2019-01-11T01:15:24.377Z,4.27
2019-01-11T01:17:54.620Z,5.30
2019-01-11T01:20:24.802Z,5.77
2019-01-11T01:22:54.965Z,5.63
2019-01-11T01:25:25.114Z,5.80
2019-01-11T01:27:55.206Z,6.23
2019-01-11T01:30:25.347Z,6.17
2019-01-11T01:32:55.568Z,6.73
2019-01-11T01:35:25.767Z,7.17
2019-01-11T01:37:56.074Z,6.17
2019-01-11T01:40:27.376Z,6.43
2019-01-11T01:42:57.459Z,6.30
2019-01-11T01:45:27.724Z,5.63
2019-01-11T01:47:57.921Z,5.57
2019-01-11T01:50:28.176Z,5.20
2019-01-11T01:52:58.346Z,5.37
2019-01-11T01:55:28.663Z,4.67
2019-01-11T01:57:58.887Z,4.60
2019-01-11T02:00:29.303Z,4.93
2019-01-11T02:02:59.589Z,5.03
2019-01-11T02:05:29.656Z,4.40
2019-01-11T02:07:59.839Z,5.07
2019-01-11T02:10:30.040Z,5.40
2019-01-11T02:13:00.258Z,5.17
2019-01-11T02:15:30.426Z,5.30
2019-01-11T02:18:00.664Z,5.50
2019-01-11T02:20:30.863Z,5.53
2019-01-11T02:23:01.084Z,5.33
2019-01-11T02:25:31.270Z,5.63
2019-01-11T02:28:01.828Z,6.00
2019-01-11T02:30:32.092Z,6.07
2019-01-11T02:33:02.307Z,6.00
2019-01-11T02:35:32.466Z,6.40
2019-01-11T02:38:02.690Z,6.50
2019-01-11T02:40:32.919Z,6.37
2019-01-11T02:43:03.130Z,6.47
2019-01-11T02:45:33.458Z,6.43
2019-01-11T02:48:03.588Z,6.50
2019-01-11T02:50:33.811Z,7.03
2019-01-11T02:53:03.932Z,6.33
2019-01-11T02:55:34.222Z,5.87
2019-01-11T02:58:04.483Z,5.83
2019-01-11T03:00:34.751Z,5.97
2019-01-11T03:03:05.043Z,5.73
2019-01-11T03:05:35.287Z,5.60
2019-01-11T03:08:05.430Z,5.93
2019-01-11T03:10:35.771Z,6.03
2019-01-11T03:13:06.081Z,5.70
2019-01-11T03:15:36.308Z,6.70
2019-01-11T03:18:06.495Z,6.10
2019-01-11T03:20:37.703Z,6.77
2019-01-11T03:23:07.975Z,6.87
2019-01-11T03:25:38.127Z,6.70
2019-01-11T03:28:08.266Z,6.33
2019-01-11T03:30:38.543Z,6.60
2019-01-11T03:33:08.760Z,6.97
2019-01-11T03:35:39.008Z,7.43
2019-01-11T03:38:09.274Z,7.40
2019-01-11T03:40:39.381Z,7.70
2019-01-11T03:43:09.583Z,7.53
2019-01-11T03:45:39.728Z,8.00
2019-01-11T03:48:09.943Z,8.00
2019-01-11T03:50:40.547Z,8.33
2019-01-11T03:53:10.804Z,9.53
2019-01-11T03:55:40.951Z,9.70
2019-01-11T03:58:11.191Z,9.57
2019-01-11T04:00:41.628Z,10.10
2019-01-11T04:03:11.970Z,9.17
2019-01-11T04:05:42.480Z,9.30
2019-01-11T04:08:12.755Z,8.77
2019-01-11T04:10:43.054Z,7.70
2019-01-11T04:13:14.808Z,7.30
2019-01-11T04:15:44.970Z,8.40
2019-01-11T04:18:31.553Z,8.63
2019-01-11T04:21:01.734Z,8.50
2019-01-11T04:23:31.899Z,8.87
2019-01-11T04:26:02.204Z,8.10
2019-01-11T04:28:32.362Z,8.40
2019-01-11T04:31:02.550Z,9.03
2019-01-11T04:33:33.668Z,8.60
2019-01-11T04:36:03.868Z,9.57
2019-01-11T04:38:34.035Z,9.53
2019-01-11T04:41:04.166Z,8.70
2019-01-11T04:43:34.333Z,9.73
2019-01-11T04:46:04.469Z,9.67
2019-01-11T04:48:34.916Z,10.67
2019-01-11T04:51:05.190Z,11.23
2019-01-11T04:53:35.443Z,10.77
2019-01-11T04:56:05.705Z,11.00
2019-01-11T04:58:36.025Z,11.10
2019-01-11T05:01:06.257Z,10.63
2019-01-11T05:03:36.641Z,11.93
2019-01-11T05:06:07.945Z,11.27
2019-01-11T05:08:38.130Z,11.70
2019-01-11T05:11:08.257Z,12.13
2019-01-11T05:13:40.103Z,11.87
2019-01-11T05:16:10.267Z,11.27
2019-01-11T05:18:40.375Z,12.13
2019-01-11T05:21:10.566Z,12.23
2019-01-11T05:23:40.668Z,11.97
2019-01-11T05:26:10.907Z,12.40
2019-01-11T05:28:41.058Z,12.40
2019-01-11T05:31:11.884Z,12.23
2019-01-11T05:33:42.113Z,13.53
2019-01-11T05:36:12.375Z,13.23
2019-01-11T05:38:42.521Z,13.70
2019-01-11T05:41:12.646Z,12.97
2019-01-11T05:43:42.779Z,12.80
2019-01-11T05:46:13.087Z,13.90
2019-01-11T05:48:43.316Z,13.33
2019-01-11T05:51:13.582Z,14.37
2019-01-11T05:53:43.831Z,13.93
2019-01-11T05:56:16.383Z,13.47
2019-01-11T05:58:58.666Z,13.87
2019-01-11T06:01:30.051Z,13.87
2019-01-11T06:04:00.393Z,14.13
2019-01-11T06:06:49.982Z,14.20
2019-01-11T06:09:20.219Z,14.60
2019-01-11T06:11:50.495Z,14.33
2019-01-11T06:14:20.783Z,13.03
2019-01-11T06:16:50.937Z,14.87
2019-01-11T06:19:21.196Z,15.67
2019-01-11T06:21:51.459Z,14.37
2019-01-11T06:24:21.739Z,15.23
2019-01-11T06:26:52.406Z,14.70
2019-01-11T06:29:22.669Z,15.40
2019-01-11T06:31:53.095Z,15.60
2019-01-11T06:34:23.363Z,15.87
2019-01-11T06:36:53.878Z,15.40
2019-01-11T06:39:24.187Z,16.30
2019-01-11T06:41:57.499Z,16.33
2019-01-11T06:44:28.779Z,17.03
2019-01-11T06:46:59.048Z,15.60
2019-01-11T06:49:29.290Z,16.13
2019-01-11T06:51:59.424Z,15.93
2019-01-11T06:54:29.664Z,15.93
2019-01-11T06:56:59.861Z,17.33
2019-01-11T06:59:30.127Z,17.20
2019-01-11T07:02:00.347Z,16.27
2019-01-11T07:04:30.541Z,17.07
2019-01-11T07:07:01.026Z,16.87
2019-01-11T07:09:31.236Z,16.93
2019-01-11T07:12:01.615Z,16.93
2019-01-11T07:14:31.794Z,15.97
2019-01-11T07:17:01.930Z,16.73
2019-01-11T07:19:32.050Z,15.57
2019-01-11T07:22:02.623Z,16.10
2019-01-11T07:24:33.843Z,18.00
2019-01-11T07:27:04.073Z,16.47
2019-01-11T07:29:34.298Z,17.53
2019-01-11T07:32:04.750Z,16.30
2019-01-11T07:34:35.213Z,16.83
2019-01-11T07:37:05.777Z,16.70
2019-01-11T07:39:36.082Z,16.50
2019-01-11T07:42:06.267Z,16.53
2019-01-11T07:44:36.475Z,17.13
2019-01-11T07:47:06.754Z,16.03
2019-01-11T07:49:36.846Z,16.77
2019-01-11T07:52:07.051Z,15.17
2019-01-11T07:54:37.127Z,15.77
2019-01-11T07:57:07.424Z,20.23
2019-01-11T07:59:37.638Z,16.67
2019-01-11T08:02:07.723Z,19.87
2019-01-11T08:04:37.963Z,16.70
2019-01-11T08:07:08.178Z,15.73
2019-01-11T08:09:38.282Z,16.30
2019-01-11T08:12:08.471Z,15.77
2019-01-11T08:14:38.628Z,15.87
2019-01-11T08:17:08.763Z,16.30
2019-01-11T08:19:38.913Z,16.00
2019-01-11T08:22:11.587Z,16.67
2019-01-11T08:24:45.612Z,15.50
2019-01-11T08:27:15.742Z,17.20
2019-01-11T08:29:49.023Z,16.40
2019-01-11T08:32:19.245Z,16.03
2019-01-11T08:34:49.442Z,15.47
2019-01-11T08:37:21.262Z,16.27
2019-01-11T08:39:51.639Z,16.17
2019-01-11T08:42:21.870Z,15.53
2019-01-11T08:44:52.004Z,16.23
2019-01-11T08:47:22.063Z,17.17
2019-01-11T08:49:52.290Z,15.33
2019-01-11T08:52:22.514Z,15.70
2019-01-11T08:54:52.645Z,17.00
2019-01-11T08:57:22.870Z,16.63
2019-01-11T08:59:53.352Z,17.03
2019-01-11T09:02:23.503Z,15.30
2019-01-11T09:04:54.118Z,16.07
2019-01-11T09:07:24.244Z,16.53
2019-01-11T09:09:54.346Z,16.20
2019-01-11T09:12:24.531Z,16.60
2019-01-11T09:14:54.873Z,15.83
2019-01-11T09:17:25.044Z,17.00
2019-01-11T09:19:55.475Z,17.33
2019-01-11T09:22:25.751Z,17.77
2019-01-11T09:24:55.845Z,16.40
2019-01-11T09:27:26.013Z,16.60
2019-01-11T09:29:56.107Z,15.90
2019-01-11T09:32:26.363Z,16.00
2019-01-11T09:34:56.497Z,18.00
2019-01-11T09:37:26.604Z,16.97
2019-01-11T09:39:56.775Z,17.83
2019-01-11T09:42:27.019Z,18.33
2019-01-11T09:44:57.267Z,16.53
2019-01-11T09:47:27.432Z,16.43
2019-01-11T09:49:58.635Z,18.40
2019-01-11T09:52:29.193Z,17.03
2019-01-11T09:54:59.510Z,17.73
2019-01-11T09:57:29.706Z,16.10
2019-01-11T09:59:59.958Z,17.27
2019-01-11T10:02:37.198Z,17.57
2019-01-11T10:05:09.180Z,17.77
2019-01-11T10:07:39.552Z,18.37
2019-01-11T10:10:12.390Z,17.67
2019-01-11T10:12:42.603Z,17.97
2019-01-11T10:15:13.408Z,17.40
2019-01-11T10:17:43.557Z,16.77
2019-01-11T10:20:13.972Z,17.70
2019-01-11T10:22:44.053Z,19.07
2019-01-11T10:25:14.290Z,18.17
2019-01-11T10:27:44.458Z,18.83
2019-01-11T10:30:16.711Z,19.03
2019-01-11T10:32:47.139Z,19.53
2019-01-11T10:35:17.303Z,19.80
2019-01-11T10:37:47.435Z,18.23
2019-01-11T10:40:18.294Z,20.70
2019-01-11T10:42:49.617Z,19.50
2019-01-11T10:45:21.989Z,19.10
2019-01-11T10:47:55.240Z,19.60
2019-01-11T10:50:25.344Z,19.87
2019-01-11T10:52:55.741Z,18.93
2019-01-11T10:55:25.819Z,18.57
2019-01-11T10:57:56.032Z,19.10
2019-01-11T11:00:26.953Z,19.50
2019-01-11T11:02:57.423Z,18.43
2019-01-11T11:05:27.519Z,19.80
2019-01-11T11:07:57.565Z,18.70
2019-01-11T11:10:27.675Z,18.57
2019-01-11T11:12:57.739Z,19.60
2019-01-11T11:15:28.051Z,18.27
2019-01-11T11:17:58.588Z,18.70
2019-01-11T11:20:28.730Z,20.30
2019-01-11T11:22:59.512Z,19.33
2019-01-11T11:25:30.158Z,19.80
2019-01-11T11:28:00.465Z,21.10
2019-01-11T11:30:30.590Z,20.13
2019-01-11T11:33:01.932Z,18.80
2019-01-11T11:35:32.809Z,19.67
2019-01-11T11:38:03.058Z,20.40
2019-01-11T11:40:33.559Z,18.90
2019-01-11T11:43:03.808Z,21.07
2019-01-11T11:45:33.949Z,21.07
2019-01-11T11:48:04.212Z,19.63
2019-01-11T11:50:34.718Z,19.50
2019-01-11T11:53:05.227Z,18.77
2019-01-11T11:55:35.434Z,17.97
2019-01-11T11:58:05.798Z,17.43
2019-01-11T12:00:35.982Z,19.07
2019-01-11T12:03:06.219Z,19.27
2019-01-11T12:05:36.364Z,18.23
2019-01-11T12:08:06.482Z,19.43
2019-01-11T12:10:36.641Z,17.63
2019-01-11T12:13:06.755Z,17.63
2019-01-11T12:15:37.103Z,17.20
2019-01-11T12:18:07.338Z,17.33
2019-01-11T12:20:37.702Z,18.43
2019-01-11T12:23:07.935Z,17.77
2019-01-11T12:25:38.135Z,17.97
2019-01-11T12:28:08.359Z,18.17
2019-01-11T12:30:38.455Z,17.73
2019-01-11T12:33:08.661Z,18.93
2019-01-11T12:35:38.731Z,16.50
2019-01-11T12:38:13.678Z,17.33
2019-01-11T12:40:41.708Z,16.33
2019-01-11T12:43:11.844Z,18.27
2019-01-11T12:45:42.963Z,17.77
2019-01-11T12:48:13.174Z,16.83
2019-01-11T12:50:43.395Z,16.93
2019-01-11T12:53:13.723Z,15.53
2019-01-11T12:55:43.832Z,16.27
2019-01-11T12:58:14.064Z,15.70
2019-01-11T13:00:44.250Z,14.73
2019-01-11T13:03:14.487Z,15.17
2019-01-11T13:05:44.679Z,13.93
2019-01-11T13:08:14.821Z,12.60
2019-01-11T13:10:45.122Z,13.43
2019-01-11T13:13:15.215Z,13.10
2019-01-11T13:15:45.381Z,13.13
2019-01-11T13:18:15.543Z,13.30
2019-01-11T13:20:45.742Z,13.57
2019-01-11T13:23:15.832Z,12.50
2019-01-11T13:25:46.095Z,10.60
2019-01-11T13:28:16.393Z,10.13
2019-01-11T13:30:46.578Z,9.03
2019-01-11T13:33:17.212Z,8.20
2019-01-11T13:35:47.367Z,5.27
2019-01-11T13:38:17.599Z,5.67
2019-01-11T13:40:47.696Z,5.70
2019-01-11T13:43:17.895Z,5.20
2019-01-11T13:45:48.218Z,4.13
2019-01-11T13:48:18.366Z,4.83
2019-01-11T13:50:48.544Z,4.53
2019-01-11T13:53:20.170Z,3.67
2019-01-11T13:55:50.967Z,4.00
2019-01-11T13:58:21.215Z,3.90
2019-01-11T14:00:51.369Z,3.90
2019-01-11T14:03:21.720Z,4.10
2019-01-11T14:05:51.935Z,4.40
2019-01-11T14:08:22.134Z,4.23
2019-01-11T14:10:52.382Z,4.73
2019-01-11T14:13:22.591Z,3.93
2019-01-11T14:15:52.839Z,4.23
2019-01-11T14:18:23.387Z,4.10
2019-01-11T14:20:53.606Z,3.90
2019-01-11T14:23:23.767Z,4.17
2019-01-11T14:25:54.016Z,4.40
2019-01-11T14:28:24.184Z,4.57
2019-01-11T14:30:54.348Z,4.13
2019-01-11T14:33:24.592Z,4.17
2019-01-11T14:35:54.714Z,4.20
2019-01-11T14:38:24.963Z,4.50
2019-01-11T14:40:55.162Z,3.97
2019-01-11T14:43:25.444Z,4.10
2019-01-11T14:45:55.623Z,4.90
2019-01-11T14:48:25.835Z,4.53
2019-01-11T14:50:56.079Z,4.33
2019-01-11T14:53:26.474Z,4.57
2019-01-11T14:55:56.633Z,4.17
2019-01-11T14:58:28.816Z,4.27
2019-01-11T15:00:58.643Z,3.93
2019-01-11T15:03:28.875Z,4.00
2019-01-11T15:05:59.382Z,3.83
2019-01-11T15:08:29.627Z,3.67
2019-01-11T15:10:59.839Z,3.77
2019-01-11T15:13:30.569Z,9.23
2019-01-11T15:16:00.786Z,4.13
2019-01-11T15:18:31.066Z,4.20
2019-01-11T15:21:01.269Z,4.43
2019-01-11T15:23:31.454Z,3.60
2019-01-11T15:26:01.566Z,3.30
2019-01-11T15:28:31.874Z,3.70
2019-01-11T15:31:02.078Z,3.00
2019-01-11T15:33:32.244Z,3.50
2019-01-11T15:36:02.485Z,3.80
2019-01-11T15:38:32.676Z,3.97
2019-01-11T15:41:02.963Z,3.80
2019-01-11T15:43:33.182Z,3.73
2019-01-11T15:46:04.813Z,5.63
2019-01-11T15:48:44.212Z,3.80
2019-01-11T15:51:15.287Z,4.00
2019-01-11T15:53:45.571Z,3.77
2019-01-11T15:56:22.720Z,3.93
2019-01-11T15:58:52.943Z,3.93
2019-01-11T16:01:24.680Z,8.60
2019-01-11T16:03:55.032Z,6.37
2019-01-11T16:06:29.983Z,3.93
2019-01-11T16:10:00.001Z,3.40
2019-01-11T16:12:56.771Z,3.27
2019-01-11T16:16:09.641Z,3.43
2019-01-11T16:18:39.888Z,3.27
2019-01-11T16:21:10.097Z,3.40
2019-01-11T16:23:40.275Z,3.40
2019-01-11T16:26:10.440Z,3.20
2019-01-11T16:28:41.660Z,3.00
2019-01-11T16:31:11.868Z,33.53
2019-01-11T16:33:42.369Z,5.43
2019-01-11T16:36:12.474Z,3.90
2019-01-11T16:38:42.594Z,3.50
2019-01-11T16:41:12.847Z,3.40
2019-01-11T16:43:43.058Z,3.50
2019-01-11T16:46:13.278Z,3.60
2019-01-11T16:48:43.535Z,3.07
2019-01-11T16:51:14.815Z,3.40
2019-01-11T16:53:45.052Z,4.07
2019-01-11T16:56:15.298Z,3.67
2019-01-11T16:58:45.987Z,4.20
2019-01-11T17:01:16.161Z,4.20
2019-01-11T17:03:46.381Z,4.27
2019-01-11T17:06:16.620Z,4.20
2019-01-11T17:08:47.697Z,4.37
2019-01-11T17:11:18.009Z,4.40
2019-01-11T17:13:48.504Z,3.97
2019-01-11T17:16:18.781Z,4.43
2019-01-11T17:18:48.982Z,4.17
2019-01-11T17:21:19.255Z,3.93
2019-01-11T17:23:49.448Z,4.17
2019-01-11T17:26:19.721Z,5.10
2019-01-11T17:28:49.988Z,4.57
2019-01-11T17:31:20.195Z,4.80
2019-01-11T17:33:50.417Z,4.70
2019-01-11T17:36:20.683Z,4.17
2019-01-11T17:38:51.009Z,11.87
2019-01-11T17:41:21.166Z,5.30
2019-01-11T17:43:51.313Z,4.40
2019-01-11T17:46:21.448Z,4.30
2019-01-11T17:48:52.238Z,4.60
2019-01-11T17:51:22.449Z,5.27
2019-01-11T17:53:52.860Z,5.20
2019-01-11T17:56:23.093Z,4.57
2019-01-11T17:58:53.275Z,4.63
2019-01-11T18:01:23.461Z,5.37
2019-01-11T18:03:53.737Z,5.10
2019-01-11T18:06:23.965Z,5.93
2019-01-11T18:08:54.146Z,5.90
2019-01-11T18:11:24.315Z,5.73
2019-01-11T18:13:54.815Z,5.40
2019-01-11T18:16:24.971Z,5.67
2019-01-11T18:18:55.489Z,5.87
2019-01-11T18:21:25.691Z,6.30
2019-01-11T18:23:56.057Z,6.47
2019-01-11T18:26:26.292Z,6.10
2019-01-11T18:28:56.528Z,6.90
2019-01-11T18:31:26.817Z,6.00
2019-01-11T18:33:57.363Z,5.77
2019-01-11T18:36:27.604Z,7.30
2019-01-11T18:38:58.222Z,6.17
2019-01-11T18:41:28.399Z,6.13
2019-01-11T18:43:58.793Z,6.33
2019-01-11T18:46:28.923Z,6.13
2019-01-11T18:48:59.202Z,6.40
2019-01-11T18:51:29.424Z,6.67
2019-01-11T18:53:59.643Z,6.10
2019-01-11T18:56:29.763Z,6.97
2019-01-11T18:59:00.017Z,6.47
2019-01-11T19:01:30.166Z,6.33
2019-01-11T19:04:00.311Z,6.47
2019-01-11T19:06:30.596Z,6.77
2019-01-11T19:09:00.888Z,7.17
2019-01-11T19:11:32.656Z,6.03
2019-01-11T19:14:02.867Z,5.90
2019-01-11T19:16:33.091Z,6.73
2019-01-11T19:19:03.323Z,6.17
2019-01-11T19:21:33.722Z,6.40
2019-01-11T19:24:04.075Z,5.80
2019-01-11T19:26:34.333Z,6.00
2019-01-11T19:29:04.826Z,5.80
2019-01-11T19:31:34.990Z,5.90
2019-01-11T19:34:05.280Z,5.77
2019-01-11T19:36:35.457Z,5.50
2019-01-11T19:39:08.212Z,5.73
2019-01-11T19:41:38.558Z,5.70
2019-01-11T19:44:08.761Z,5.57
2019-01-11T19:46:39.008Z,5.77
2019-01-11T19:49:09.111Z,6.33
2019-01-11T19:51:40.316Z,5.73
2019-01-11T19:54:11.432Z,6.47
2019-01-11T19:56:42.620Z,6.93
2019-01-11T19:59:12.831Z,7.23
2019-01-11T20:01:43.017Z,6.93
2019-01-11T20:04:13.228Z,6.60
2019-01-11T20:06:43.736Z,7.13
2019-01-11T20:09:14.896Z,7.33
2019-01-11T20:11:45.163Z,6.40
2019-01-11T20:14:15.698Z,6.60
2019-01-11T20:16:45.794Z,7.00
2019-01-11T20:19:16.038Z,6.80
2019-01-11T20:21:46.201Z,5.93
2019-01-11T20:24:16.487Z,6.33
2019-01-11T20:26:46.701Z,6.60
2019-01-11T20:29:16.942Z,6.03
2019-01-11T20:31:47.047Z,6.67
2019-01-11T20:34:17.269Z,6.50
2019-01-11T20:37:02.296Z,6.37
2019-01-11T20:39:32.792Z,6.67
2019-01-11T20:42:02.972Z,10.30
2019-01-11T20:44:34.221Z,8.17
2019-01-11T20:47:04.518Z,7.10
2019-01-11T20:49:34.782Z,7.00
2019-01-11T20:52:05.286Z,7.60
2019-01-11T20:54:35.458Z,7.30
2019-01-11T20:57:05.818Z,6.87
2019-01-11T20:59:35.956Z,7.10
2019-01-11T21:02:06.417Z,7.10
2019-01-11T21:04:36.665Z,6.20
2019-01-11T21:07:06.938Z,5.17
2019-01-11T21:09:37.130Z,5.87
2019-01-11T21:12:07.375Z,6.03
2019-01-11T21:14:37.593Z,5.03
2019-01-11T21:17:08.096Z,4.70
2019-01-11T21:19:39.388Z,5.00
2019-01-11T21:22:10.314Z,5.00
2019-01-11T21:24:40.531Z,4.87
2019-01-11T21:27:10.714Z,5.70
2019-01-11T21:29:40.923Z,5.13
2019-01-11T21:32:11.327Z,5.07
2019-01-11T21:34:41.535Z,4.57
2019-01-11T21:37:11.733Z,4.40
2019-01-11T21:39:42.974Z,4.77
2019-01-11T21:42:19.069Z,4.67
2019-01-11T21:44:45.046Z,4.10
2019-01-11T21:47:15.218Z,4.70
2019-01-11T21:49:48.335Z,4.30
2019-01-11T21:52:18.785Z,3.90
2019-01-11T21:54:49.942Z,4.80
2019-01-11T21:57:20.089Z,4.30
2019-01-11T21:59:50.567Z,4.03
2019-01-11T22:02:20.715Z,3.73
2019-01-11T22:04:50.890Z,3.83
2019-01-11T22:07:21.023Z,3.50
2019-01-11T22:09:51.576Z,3.93
2019-01-11T22:12:21.790Z,3.83
2019-01-11T22:14:51.968Z,3.40
2019-01-11T22:17:23.057Z,3.10
2019-01-11T22:19:53.526Z,3.63
2019-01-11T22:22:23.663Z,3.73
2019-01-11T22:24:53.808Z,3.07
2019-01-11T22:27:25.690Z,3.57
2019-01-11T22:29:55.909Z,3.30
2019-01-11T22:32:28.182Z,3.90
2019-01-11T22:34:58.562Z,3.90
2019-01-11T22:37:28.747Z,4.80
2019-01-11T22:40:00.496Z,4.63
2019-01-11T22:42:30.936Z,4.43
2019-01-11T22:45:01.183Z,4.83
2019-01-11T22:47:31.449Z,4.50
2019-01-11T22:50:01.685Z,5.73
2019-01-11T22:52:31.806Z,5.43
2019-01-11T22:55:02.124Z,5.40
2019-01-11T22:57:32.455Z,4.73
2019-01-11T23:00:02.936Z,5.43
2019-01-11T23:02:39.175Z,5.13
2019-01-11T23:05:12.195Z,5.90
2019-01-11T23:07:51.318Z,5.93
2019-01-11T23:10:39.663Z,5.93
2019-01-11T23:13:15.340Z,5.50
2019-01-11T23:15:49.353Z,5.80
2019-01-11T23:18:22.362Z,6.03
2019-01-11T23:20:55.271Z,5.67
2019-01-11T23:23:25.475Z,6.30
2019-01-11T23:25:56.642Z,5.60
2019-01-11T23:28:26.848Z,6.00
2019-01-11T23:30:56.994Z,6.20
2019-01-11T23:33:27.153Z,6.63
2019-01-11T23:35:57.321Z,6.80
2019-01-11T23:38:27.550Z,5.40
2019-01-11T23:40:57.725Z,7.10
2019-01-11T23:43:27.973Z,6.90
2019-01-11T23:45:58.197Z,7.33
2019-01-11T23:48:28.386Z,7.40
2019-01-11T23:50:58.632Z,7.87
2019-01-11T23:53:28.827Z,7.53
2019-01-11T23:55:58.995Z,7.10
2019-01-11T23:58:29.167Z,7.67
